Terminal Aerodrome Forecast
Issued by NWS Charleston, WV

Current Version | Previous Version | Graphics & Text | Print | Product List | Glossary On
Versions: 1 2 3 4 5 6 7 8 9 10 11 12 13 14 15 16 17 18 19 20 21 22 23 24 25 26 27 28 29 30 31 32 33
934
FTUS41 KRLX 300549
TAFBKW
TAF
KBKW 300549Z 3006/3106 VRB03KT 6SM BR BKN003
     FM300700 VRB03KT 4SM BR BKN002
      TEMPO 3008/3012 1SM BR OVC001
     FM301200 VRB03KT 4SM BR BKN003
     FM301300 VRB03KT 4SM BR BKN020
     FM301400 23004KT P6SM BKN035
     FM310100 00000KT P6SM BKN050
     FM310500 00000KT P6SM BKN015=

USA.gov is the U.S. government's official web portal to all federal, state and local government web resources and services.